Aviation Digital Data Service (ADDS)

Output produced by TAFs form (1050 UTC 27 August 2014)
found at http://aviationweather.gov/adds/tafs/
 
KFMN 270538Z 2706/2806 06008KT P6SM SCT070 
     FM271300 08006KT P6SM VCSH BKN070 
     FM271900 24007KT P6SM VCTS SCT070CB 
     FM280100 VRB04KT P6SM SCT080